Terminal Aerodrome Forecast
Issued by NWS

Home | Current Version | Previous Version | Text Only | Print | Product List | Glossary On
Versions: 1 2 3 4 5 6 7 8 9 10 11 12 13 14 15 16 17 18 19 20 21 22 23 24 25 26 27 28 29 30 31 32 33 34 35 36
952
FTUS46 KOTX 261730
TAFSFF
TAF
KSFF 261730Z 2618/2718 00000KT P6SM SCT050 BKN080
     FM262200 11005KT P6SM -RA BKN050 OVC060
     FM270000 11003KT P6SM -RA OVC035
     FM270300 VRB03KT P6SM -RA SCT020 OVC030
     FM270600 VRB03KT P6SM -RA OVC021
     FM271200 20006KT P6SM BKN016=

USA.gov is the U.S. government's official web portal to all federal, state and local government web resources and services.